Time;durP1;ratioP1;P1;durP2;ratioP2;P2;SDS_P1;SDS_P2;PMS_P1;PMS_P2;Temp;Humidity;BMP_temperature;BMP_pressure;BME280_temperature;BME280_humidity;BME280_pressure;Samples;Min_cycle;Max_cycle;Signal;HPM_P1;HPM_P2
2023/12/10 00:00:25;;;;;;;13.20;7.00;;;;;;;11.00;33.83;100872.86;106230;1253;60469;-62
2023/12/10 00:02:54;;;;;;;16.20;7.40;;;;;;;10.95;33.91;100870.40;106210;1254;60580;-64
2023/12/10 00:05:21;;;;;;;13.50;6.80;;;;;;;10.89;34.09;100863.08;105530;1259;64953;-66
2023/12/10 00:07:49;;;;;;;14.30;5.10;;;;;;;10.86;34.09;100860.71;105584;1256;60429;-64
2023/12/10 00:10:17;;;;;;;15.70;6.20;;;;;;;10.82;34.06;100859.97;105536;1252;63745;-64
2023/12/10 00:12:45;;;;;;;15.50;6.20;;;;;;;10.76;34.02;100859.83;105580;1253;60530;-65
2023/12/10 00:15:12;;;;;;;12.00;5.30;;;;;;;10.71;34.04;100858.98;105547;1253;61224;-64
2023/12/10 00:17:41;;;;;;;13.90;6.40;;;;;;;10.66;34.15;100857.80;105407;1252;63630;-64
2023/12/10 00:20:09;;;;;;;12.60;6.30;;;;;;;10.62;34.27;100859.10;105718;1256;61542;-64
2023/12/10 00:22:36;;;;;;;10.80;4.30;;;;;;;10.65;34.34;100860.33;105308;1254;62505;-64
2023/12/10 00:25:05;;;;;;;9.00;3.80;;;;;;;10.74;34.15;100863.31;105314;1256;60555;-65
2023/12/10 00:27:33;;;;;;;12.00;4.50;;;;;;;10.83;34.17;100871.97;105849;1254;60519;-59
2023/12/10 00:30:01;;;;;;;10.00;4.40;;;;;;;10.95;34.25;100876.20;105777;1253;63926;-63
2023/12/10 00:32:29;;;;;;;10.90;4.50;;;;;;;11.07;34.25;100875.10;105683;1257;60524;-63
2023/12/10 00:34:57;;;;;;;11.60;5.00;;;;;;;11.21;34.13;100866.58;105208;1259;62619;-62
2023/12/10 00:37:26;;;;;;;10.10;5.50;;;;;;;11.30;33.94;100865.35;105224;1259;60666;-65
2023/12/10 00:39:54;;;;;;;12.80;5.70;;;;;;;11.32;33.84;100859.17;105868;1257;60360;-64
2023/12/10 00:42:22;;;;;;;14.80;5.90;;;;;;;11.36;33.82;100858.41;105428;1253;63608;-66
2023/12/10 00:44:49;;;;;;;14.30;6.70;;;;;;;11.37;33.79;100857.59;105536;1256;60515;-65
2023/12/10 00:47:18;;;;;;;18.60;6.10;;;;;;;11.36;33.63;100851.33;105610;1254;63794;-65
2023/12/10 00:49:46;;;;;;;13.30;6.00;;;;;;;11.33;33.52;100853.11;105305;1259;60493;-62
2023/12/10 00:52:14;;;;;;;14.80;7.30;;;;;;;11.31;33.63;100853.98;102602;1253;3813005;-64
2023/12/10 00:56:23;;;;;;;14.90;5.60;;;;;;;9.14;37.15;100859.05;102295;1290;600117;-63
2023/12/10 00:58:50;;;;;;;13.20;5.30;;;;;;;10.38;34.96;100853.27;104509;1266;59213;-64
2023/12/10 01:01:18;;;;;;;15.30;7.10;;;;;;;10.44;34.83;100850.24;104416;1266;60450;-64
2023/12/10 01:03:46;;;;;;;14.60;6.40;;;;;;;10.41;34.92;100850.63;104484;1266;63088;-67
2023/12/10 01:06:14;;;;;;;19.40;7.70;;;;;;;10.42;35.02;100853.36;104489;1266;60234;-64
2023/12/10 01:08:43;;;;;;;14.20;7.00;;;;;;;10.40;34.89;100856.13;104396;1266;64856;-62
2023/12/10 01:11:12;;;;;;;13.20;5.30;;;;;;;10.34;35.03;100857.63;102285;1269;3523662;-64
2023/12/10 01:13:41;;;;;;;16.20;7.00;;;;;;;10.30;35.06;100856.50;104557;1270;59051;-64
2023/12/10 01:16:09;;;;;;;15.60;6.50;;;;;;;10.26;35.17;100850.81;104990;1268;72191;-62
2023/12/10 01:18:37;;;;;;;14.60;6.60;;;;;;;10.26;35.22;100848.85;104571;1263;61368;-63
2023/12/10 01:21:09;;;;;;;16.50;6.90;;;;;;;10.25;35.28;100849.27;104730;1267;62512;-62
2023/12/10 01:23:37;;;;;;;11.50;4.70;;;;;;;10.27;35.15;100852.41;104964;1266;59883;-63
2023/12/10 01:26:12;;;;;;;12.50;4.70;;;;;;;10.36;35.13;100848.33;104559;1268;59634;-63
2023/12/10 01:28:40;;;;;;;11.00;4.30;;;;;;;10.46;35.13;100847.09;104845;1264;62861;-62
2023/12/10 01:31:08;;;;;;;14.60;6.70;;;;;;;10.56;35.04;100846.00;104726;1267;62169;-63
2023/12/10 01:33:36;;;;;;;13.10;5.60;;;;;;;10.66;35.09;100847.59;104835;1263;63768;-63
2023/12/10 01:36:04;;;;;;;13.70;6.60;;;;;;;10.69;35.08;100844.55;104791;1269;59629;-62
2023/12/10 01:38:33;;;;;;;13.20;5.90;;;;;;;10.70;35.08;100844.35;105224;1263;59811;-58
2023/12/10 01:41:00;;;;;;;15.00;7.20;;;;;;;10.72;34.99;100841.02;105179;1264;62849;-58
2023/12/10 01:43:28;;;;;;;24.10;9.10;;;;;;;10.73;34.91;100842.14;104799;1266;61374;-65
2023/12/10 01:45:56;;;;;;;17.40;7.30;;;;;;;10.74;34.86;100841.92;105318;1266;63687;-67
2023/12/10 01:48:24;;;;;;;15.80;7.40;;;;;;;10.72;34.77;100840.34;104654;1265;59768;-67
2023/12/10 01:50:53;;;;;;;21.20;9.00;;;;;;;10.67;34.70;100843.80;104718;1263;59692;-67
2023/12/10 01:53:22;;;;;;;16.90;6.60;;;;;;;10.62;34.72;100845.10;104967;1263;64291;-67
2023/12/10 01:55:50;;;;;;;13.50;6.40;;;;;;;10.52;34.76;100845.40;104787;1269;61490;-67
2023/12/10 01:58:18;;;;;;;16.40;5.90;;;;;;;10.42;34.78;100843.67;104802;1267;64213;-68
2023/12/10 02:00:45;;;;;;;14.70;6.40;;;;;;;10.38;34.90;100847.84;104838;1267;59590;-69
2023/12/10 02:03:14;;;;;;;14.00;5.80;;;;;;;10.35;35.03;100847.54;104796;1268;59733;-69
2023/12/10 02:05:42;;;;;;;17.40;6.30;;;;;;;10.32;35.10;100849.31;104855;1262;63305;-70
2023/12/10 02:08:10;;;;;;;15.40;7.30;;;;;;;10.30;35.18;100849.83;104715;1263;60253;-62
2023/12/10 02:10:37;;;;;;;14.50;6.90;;;;;;;10.26;35.14;100847.95;104631;1266;63748;-63
2023/12/10 02:13:05;;;;;;;13.40;6.00;;;;;;;10.22;35.25;100846.86;104824;1269;59638;-63
2023/12/10 02:15:33;;;;;;;15.20;6.20;;;;;;;10.21;35.31;100845.02;104980;1270;59630;-62
2023/12/10 02:18:00;;;;;;;11.40;4.60;;;;;;;10.29;35.28;100844.77;104760;1263;64136;-62
2023/12/10 02:20:28;;;;;;;11.00;4.30;;;;;;;10.38;35.22;100843.31;105374;1267;60523;-61
2023/12/10 02:23:04;;;;;;;15.80;6.30;;;;;;;10.43;35.17;100837.82;104792;1269;63819;-62
2023/12/10 02:25:33;;;;;;;12.00;5.10;;;;;;;10.49;35.29;100830.72;105162;1266;59790;-62
2023/12/10 02:28:05;;;;;;;16.50;6.00;;;;;;;10.58;35.35;100822.55;105229;1266;59561;-62
2023/12/10 02:30:33;;;;;;;13.40;6.30;;;;;;;10.67;35.36;100820.65;105216;1263;64113;-62
2023/12/10 02:33:01;;;;;;;12.80;5.50;;;;;;;10.75;35.31;100823.92;105257;1267;61582;-62
2023/12/10 02:35:29;;;;;;;14.90;6.10;;;;;;;10.78;35.24;100824.92;105324;1268;62542;-62
2023/12/10 02:37:57;;;;;;;15.00;7.00;;;;;;;10.82;35.12;100824.97;105215;1268;59618;-59
2023/12/10 02:40:26;;;;;;;17.80;7.20;;;;;;;10.86;35.05;100820.45;104617;1264;59772;-68
2023/12/10 02:42:54;;;;;;;19.30;7.60;;;;;;;10.90;34.87;100821.08;104831;1264;64062;-68
2023/12/10 02:45:21;;;;;;;13.80;5.60;;;;;;;10.91;34.84;100821.70;105635;1256;60223;-68
2023/12/10 02:47:49;;;;;;;14.90;7.20;;;;;;;10.86;34.75;100826.96;105586;1255;64223;-66
2023/12/10 02:50:17;;;;;;;18.40;6.80;;;;;;;10.77;34.67;100831.48;105516;1257;59727;-67
2023/12/10 02:52:45;;;;;;;14.20;5.90;;;;;;;10.72;34.77;100824.35;105554;1256;59775;-68
2023/12/10 02:55:12;;;;;;;15.00;6.40;;;;;;;10.64;34.84;100823.15;105499;1256;64184;-67
2023/12/10 02:57:40;;;;;;;12.40;6.80;;;;;;;10.60;34.86;100825.56;105531;1253;61611;-67
2023/12/10 03:00:08;;;;;;;14.00;6.80;;;;;;;10.54;34.87;100831.27;105500;1256;62495;-65
2023/12/10 03:02:37;;;;;;;13.70;5.50;;;;;;;10.51;34.93;100832.89;105947;1256;59769;-66
2023/12/10 03:05:05;;;;;;;13.80;6.20;;;;;;;10.48;35.09;100832.91;105999;1256;59943;-63
2023/12/10 03:07:33;;;;;;;14.90;6.40;;;;;;;10.45;35.10;100828.24;105997;1256;64114;-67
2023/12/10 03:10:01;;;;;;;12.10;5.10;;;;;;;10.38;35.09;100823.96;106120;1255;61362;-67
2023/12/10 03:12:29;;;;;;;7.60;3.80;;;;;;;10.39;35.05;100825.98;106190;1256;63749;-67
2023/12/10 03:14:58;;;;;;;14.50;5.50;;;;;;;10.47;34.99;100829.85;106142;1255;59683;-66
2023/12/10 03:17:25;;;;;;;16.00;6.60;;;;;;;10.55;34.98;100830.80;106132;1256;59656;-67
2023/12/10 03:19:53;;;;;;;13.60;7.20;;;;;;;10.62;35.10;100836.44;105570;1256;62810;-68
2023/12/10 03:22:21;;;;;;;10.50;4.40;;;;;;;10.73;35.01;100837.92;105572;1254;60087;-67
2023/12/10 03:24:48;;;;;;;14.50;4.50;;;;;;;10.80;34.86;100836.19;105538;1256;63860;-68
2023/12/10 03:27:17;;;;;;;16.20;6.20;;;;;;;10.87;34.93;100835.66;105560;1254;59637;-67
2023/12/10 03:29:45;;;;;;;14.90;7.50;;;;;;;10.91;34.86;100829.95;105647;1255;59596;-62
2023/12/10 03:32:12;;;;;;;17.50;7.20;;;;;;;10.90;34.86;100827.54;105531;1256;64582;-63
2023/12/10 03:34:40;;;;;;;15.40;6.60;;;;;;;10.91;34.80;100825.77;105548;1256;61622;-64
2023/12/10 03:37:08;;;;;;;15.90;7.20;;;;;;;10.89;34.72;100824.82;105900;1256;73892;-65
2023/12/10 03:39:36;;;;;;;14.80;6.10;;;;;;;10.86;34.69;100825.23;105447;1254;59640;-66
2023/12/10 03:42:04;;;;;;;13.50;5.60;;;;;;;10.79;34.67;100822.80;105542;1256;59672;-66
2023/12/10 03:44:32;;;;;;;20.90;8.30;;;;;;;10.71;34.70;100815.61;105565;1257;64115;-67
2023/12/10 03:47:03;;;;;;;18.00;6.50;;;;;;;10.68;34.82;100817.79;106173;1257;60224;-65
2023/12/10 03:49:30;;;;;;;15.10;6.40;;;;;;;10.63;34.81;100817.13;105538;1254;64211;-66
2023/12/10 03:51:58;;;;;;;13.50;5.50;;;;;;;10.57;34.92;100819.84;106172;1257;59686;-63
2023/12/10 03:54:26;;;;;;;14.90;7.40;;;;;;;10.52;34.95;100820.39;105531;1251;59638;-65
2023/12/10 03:56:54;;;;;;;12.50;5.80;;;;;;;10.48;35.05;100822.02;105555;1256;62883;-63
2023/12/10 03:59:21;;;;;;;14.10;5.60;;;;;;;10.44;35.08;100818.83;105508;1251;60358;-62
2023/12/10 04:01:49;;;;;;;20.20;6.70;;;;;;;10.39;35.16;100816.51;105471;1256;63723;-63
2023/12/10 04:04:17;;;;;;;16.20;6.40;;;;;;;10.36;35.10;100816.27;105522;1254;59845;-63
2023/12/10 04:06:45;;;;;;;17.30;7.00;;;;;;;10.32;35.24;100817.92;105443;1266;59706;-63
2023/12/10 04:09:12;;;;;;;16.10;5.20;;;;;;;10.29;35.26;100815.15;105421;1253;63072;-63
2023/12/10 04:11:40;;;;;;;9.90;4.60;;;;;;;10.32;35.26;100815.98;105529;1257;61363;-63
2023/12/10 04:14:11;;;;;;;18.90;7.50;;;;;;;10.41;35.21;100814.48;105835;1253;63762;-63
2023/12/10 04:16:39;;;;;;;12.40;5.20;;;;;;;10.52;35.26;100812.77;105892;1256;59626;-60
2023/12/10 04:19:07;;;;;;;16.30;6.20;;;;;;;10.60;35.20;100812.73;105570;1258;59708;-63
2023/12/10 04:21:34;;;;;;;12.20;5.60;;;;;;;10.72;35.07;100810.30;105541;1257;62938;-63
2023/12/10 04:24:03;;;;;;;11.60;6.60;;;;;;;10.77;34.99;100806.77;105474;1258;60260;-68
2023/12/10 04:26:30;;;;;;;14.50;5.60;;;;;;;10.75;35.04;100807.09;106072;1256;63720;-63
2023/12/10 04:28:58;;;;;;;10.50;4.60;;;;;;;10.75;35.00;100815.85;105572;1257;60985;-64
2023/12/10 04:31:26;;;;;;;12.90;5.70;;;;;;;10.75;35.00;100825.35;106129;1255;59557;-61
2023/12/10 04:33:54;;;;;;;12.60;6.30;;;;;;;10.71;34.95;100823.91;105639;1256;62904;-65
2023/12/10 04:36:23;;;;;;;12.60;6.20;;;;;;;10.66;35.02;100822.14;105663;1255;60098;-64
2023/12/10 04:38:50;;;;;;;15.20;6.80;;;;;;;10.63;35.05;100827.13;105691;1253;62402;-64
2023/12/10 04:41:18;;;;;;;12.20;6.30;;;;;;;10.57;35.07;100826.63;105617;1252;59771;-62
2023/12/10 04:43:48;;;;;;;14.20;5.70;;;;;;;10.52;35.16;100827.71;105630;1256;59644;-59
2023/12/10 04:46:18;;;;;;;13.00;5.60;;;;;;;10.47;35.14;100824.41;105689;1256;64171;-69
2023/12/10 04:48:46;;;;;;;15.40;6.70;;;;;;;10.39;35.20;100824.27;105562;1256;63280;-69
2023/12/10 04:51:15;;;;;;;12.50;4.70;;;;;;;10.33;35.24;100826.27;105487;1257;62480;-65
2023/12/10 04:53:43;;;;;;;13.30;7.80;;;;;;;10.30;35.25;100826.28;105639;1253;59720;-66
2023/12/10 04:56:10;;;;;;;16.20;5.90;;;;;;;10.28;35.29;100825.75;105539;1257;59555;-66
2023/12/10 04:58:38;;;;;;;11.90;5.80;;;;;;;10.28;35.34;100824.14;105694;1252;64621;-69
2023/12/10 05:01:06;;;;;;;16.20;6.50;;;;;;;10.25;35.36;100827.19;105532;1257;60162;-66
2023/12/10 05:03:34;;;;;;;7.30;2.80;;;;;;;10.24;35.45;100836.36;105812;1254;63724;-65
2023/12/10 05:06:02;;;;;;;11.30;5.00;;;;;;;10.31;35.39;100838.86;105479;1254;60418;-66
2023/12/10 05:08:30;;;;;;;10.50;5.40;;;;;;;10.36;35.29;100844.28;106068;1257;60495;-64
2023/12/10 05:10:58;;;;;;;11.90;5.40;;;;;;;10.43;35.21;100851.91;106107;1256;63642;-63
2023/12/10 05:13:26;;;;;;;15.50;5.90;;;;;;;10.49;35.30;100854.27;105458;1256;61439;-65
2023/12/10 05:15:56;;;;;;;11.60;4.90;;;;;;;10.57;35.34;100856.84;106140;1254;64091;-70
2023/12/10 05:18:25;;;;;;;13.00;5.50;;;;;;;10.68;35.39;100858.13;105519;1256;60561;-64
2023/12/10 05:20:53;;;;;;;13.30;6.10;;;;;;;10.76;35.35;100853.02;105504;1251;60505;-67
2023/12/10 05:23:21;;;;;;;14.60;6.50;;;;;;;10.79;35.20;100851.88;105479;1260;63828;-64
2023/12/10 05:25:48;;;;;;;15.10;5.70;;;;;;;10.78;35.14;100850.75;105485;1260;61316;-67
2023/12/10 05:28:16;;;;;;;17.60;7.10;;;;;;;10.74;35.11;100853.81;105526;1256;63666;-68
2023/12/10 05:30:44;;;;;;;13.10;6.90;;;;;;;10.74;35.14;100854.91;105559;1256;60514;-66
2023/12/10 05:33:11;;;;;;;18.20;6.60;;;;;;;10.71;35.14;100858.12;105717;1254;60436;-56
2023/12/10 05:35:39;;;;;;;14.40;6.60;;;;;;;10.67;35.15;100856.09;105527;1254;63631;-61
2023/12/10 05:38:09;;;;;;;19.20;6.60;;;;;;;10.61;35.11;100855.33;105582;1256;61429;-67
2023/12/10 05:40:37;;;;;;;13.30;6.50;;;;;;;10.55;35.22;100853.29;105534;1251;63870;-60
2023/12/10 05:43:05;;;;;;;14.00;6.00;;;;;;;10.52;35.16;100851.21;105854;1257;60441;-56
2023/12/10 05:45:33;;;;;;;14.00;6.30;;;;;;;10.48;35.16;100850.66;105495;1251;60492;-58
2023/12/10 05:48:01;;;;;;;17.00;7.70;;;;;;;10.48;35.24;100853.61;106088;1251;63643;-65
2023/12/10 05:50:29;;;;;;;14.70;6.20;;;;;;;10.44;35.32;100850.38;105503;1257;61403;-63
2023/12/10 05:52:56;;;;;;;15.20;7.70;;;;;;;10.41;35.31;100852.18;106152;1253;63702;-64
2023/12/10 05:55:24;;;;;;;17.90;7.40;;;;;;;10.37;35.28;100855.79;106094;1257;60554;-64
2023/12/10 05:57:51;;;;;;;15.80;7.20;;;;;;;10.31;35.35;100852.52;105442;1257;60461;-61
2023/12/10 06:00:19;;;;;;;11.30;6.00;;;;;;;10.29;35.38;100852.69;105486;1251;63845;-64
2023/12/10 06:02:48;;;;;;;12.10;5.30;;;;;;;10.26;35.44;100853.11;105564;1256;60375;-61
2023/12/10 06:05:16;;;;;;;11.90;4.10;;;;;;;10.28;35.39;100853.14;105566;1257;63649;-61
2023/12/10 06:07:43;;;;;;;13.30;4.10;;;;;;;10.35;35.32;100851.54;105356;1254;60448;-61
2023/12/10 06:10:12;;;;;;;10.90;4.70;;;;;;;10.46;35.29;100851.80;105411;1257;60414;-61
2023/12/10 06:12:40;;;;;;;10.10;4.20;;;;;;;10.58;35.24;100855.31;106459;1256;64960;-61
2023/12/10 06:15:08;;;;;;;13.10;5.40;;;;;;;10.71;35.26;100857.25;105438;1257;60351;-58
2023/12/10 06:17:36;;;;;;;10.50;4.70;;;;;;;10.87;35.07;100860.64;109290;1254;62575;-67
2023/12/10 06:20:05;;;;;;;13.30;7.00;;;;;;;11.01;34.82;100863.28;109175;1254;59257;-67
2023/12/10 06:22:33;;;;;;;17.20;7.00;;;;;;;11.09;34.74;100866.41;109382;1251;58178;-67
2023/12/10 06:25:00;;;;;;;15.40;6.50;;;;;;;11.11;34.61;100865.89;109321;1251;65342;-66
2023/12/10 06:27:28;;;;;;;14.60;6.10;;;;;;;11.15;34.60;100864.89;109378;1251;61511;-66
2023/12/10 06:29:56;;;;;;;17.20;8.10;;;;;;;11.17;34.50;100871.21;105926;1256;62854;-66
2023/12/10 06:32:24;;;;;;;13.20;6.40;;;;;;;11.18;34.40;100867.83;105126;1252;60539;-66
2023/12/10 06:34:53;;;;;;;16.30;6.70;;;;;;;11.14;34.11;100863.52;109218;1251;58387;-66
2023/12/10 06:37:21;;;;;;;14.40;6.70;;;;;;;11.11;34.15;100865.33;109274;1251;63733;-67
2023/12/10 06:39:48;;;;;;;14.20;5.60;;;;;;;11.09;34.15;100860.26;109300;1251;60207;-67
2023/12/10 06:42:16;;;;;;;14.30;6.60;;;;;;;11.06;34.16;100864.48;109273;1251;63695;-67
2023/12/10 06:44:43;;;;;;;15.80;7.80;;;;;;;11.02;34.18;100866.73;108756;1251;58996;-49
2023/12/10 06:47:11;;;;;;;14.50;7.20;;;;;;;10.95;34.19;100873.69;105502;1256;60396;-51
2023/12/10 06:49:39;;;;;;;13.50;6.30;;;;;;;10.92;34.28;100867.80;105580;1252;64920;-49
2023/12/10 06:52:07;;;;;;;16.00;8.00;;;;;;;10.90;34.31;100856.16;105416;1255;60776;-63
2023/12/10 06:54:35;;;;;;;13.60;6.50;;;;;;;10.88;34.35;100852.28;105410;1254;64346;-51
2023/12/10 06:57:03;;;;;;;16.20;6.00;;;;;;;10.84;34.37;100847.55;105430;1255;60454;-63
2023/12/10 06:59:30;;;;;;;15.80;6.90;;;;;;;10.82;34.38;100851.01;105384;1251;60707;-63
2023/12/10 07:01:58;;;;;;;15.00;6.90;;;;;;;10.75;34.45;100854.48;105381;1251;65328;-62
2023/12/10 07:04:26;;;;;;;16.50;6.30;;;;;;;10.72;34.52;100853.81;109344;1251;60091;-66
2023/12/10 07:06:53;;;;;;;14.10;5.60;;;;;;;10.74;34.51;100854.58;109338;1252;63880;-62
2023/12/10 07:09:23;;;;;;;14.10;5.20;;;;;;;10.82;34.47;100856.96;109268;1251;58290;-60
2023/12/10 07:11:51;;;;;;;11.10;4.60;;;;;;;10.91;34.31;100853.33;109331;1251;58313;-62
2023/12/10 07:14:18;;;;;;;12.90;5.10;;;;;;;11.01;34.20;100852.95;109318;1251;64920;-59
2023/12/10 07:16:46;;;;;;;15.10;6.10;;;;;;;11.12;34.15;100846.10;109351;1251;60213;-60
2023/12/10 07:19:13;;;;;;;11.10;5.70;;;;;;;11.24;34.07;100845.21;105723;1251;64222;-59
2023/12/10 07:21:41;;;;;;;14.90;7.30;;;;;;;11.33;34.03;100846.32;105712;1256;60434;-63
2023/12/10 07:24:09;;;;;;;15.70;6.70;;;;;;;11.37;33.93;100854.11;105643;1251;60512;-62
2023/12/10 07:26:37;;;;;;;11.90;5.90;;;;;;;11.39;33.83;100856.94;105763;1257;64867;-62
2023/12/10 07:29:05;;;;;;;21.00;7.70;;;;;;;11.41;33.76;100861.52;105984;1254;61372;-61
2023/12/10 07:31:32;;;;;;;16.10;7.20;;;;;;;11.40;33.71;100867.21;105525;1257;62508;-64
2023/12/10 07:34:00;;;;;;;17.20;8.40;;;;;;;11.41;33.70;100862.42;105881;1256;60575;-63
2023/12/10 07:36:28;;;;;;;16.20;8.30;;;;;;;11.39;33.66;100853.59;106109;1256;60457;-64
2023/12/10 07:38:56;;;;;;;16.90;6.30;;;;;;;11.32;33.67;100853.21;106183;1251;63617;-64
2023/12/10 07:41:24;;;;;;;14.00;5.90;;;;;;;11.26;33.78;100861.23;105567;1254;61911;-63
2023/12/10 07:43:51;;;;;;;17.30;9.10;;;;;;;11.20;33.92;100863.66;105505;1254;62464;-62
2023/12/10 07:46:19;;;;;;;15.50;7.20;;;;;;;11.13;33.95;100871.14;105553;1254;60527;-62
2023/12/10 07:48:47;;;;;;;16.10;7.30;;;;;;;11.10;34.02;100874.55;105550;1256;60448;-63
2023/12/10 07:51:15;;;;;;;16.00;7.70;;;;;;;11.11;34.04;100881.30;105615;1256;63845;-64
2023/12/10 07:53:43;;;;;;;17.90;6.60;;;;;;;11.13;34.09;100882.61;105545;1254;60347;-63
2023/12/10 07:56:10;;;;;;;15.00;6.80;;;;;;;11.17;34.10;100879.65;105730;1254;63663;-63
2023/12/10 07:58:38;;;;;;;17.30;5.70;;;;;;;11.17;34.01;100877.90;105581;1251;60530;-63
2023/12/10 08:01:09;;;;;;;17.70;8.30;;;;;;;11.14;34.06;100874.80;105891;1251;60518;-63
2023/12/10 08:03:37;;;;;;;13.60;5.90;;;;;;;11.13;34.10;100875.58;105911;1256;64913;-63
2023/12/10 08:06:05;;;;;;;15.40;6.70;;;;;;;11.11;34.13;100876.73;105392;1257;60550;-62
2023/12/10 08:08:33;;;;;;;14.80;7.20;;;;;;;11.11;34.10;100878.99;105792;1257;71471;-60
2023/12/10 08:11:03;;;;;;;15.70;6.70;;;;;;;11.10;34.25;100888.39;105873;1255;60550;-66
2023/12/10 08:13:31;;;;;;;10.60;4.80;;;;;;;11.16;34.27;100885.52;105509;1253;60360;-60
2023/12/10 08:15:59;;;;;;;12.30;5.20;;;;;;;11.31;34.13;100879.48;105870;1253;63655;-61
2023/12/10 08:18:27;;;;;;;9.70;4.50;;;;;;;11.43;34.04;100871.75;105514;1257;60471;-62
2023/12/10 08:20:54;;;;;;;15.30;7.00;;;;;;;11.55;33.74;100866.77;106204;1256;62527;-62
2023/12/10 08:23:22;;;;;;;13.60;5.00;;;;;;;11.62;33.73;100862.23;105534;1256;60668;-60
2023/12/10 08:25:50;;;;;;;19.00;7.10;;;;;;;11.72;33.71;100862.16;105532;1255;60351;-61
2023/12/10 08:28:17;;;;;;;17.30;7.50;;;;;;;11.79;33.65;100865.86;105547;1253;64928;-62
2023/12/10 08:30:45;;;;;;;18.40;9.10;;;;;;;11.80;33.66;100868.38;105488;1251;61340;-60
2023/12/10 08:33:13;;;;;;;16.30;7.60;;;;;;;11.80;33.59;100873.16;105590;1256;62464;-59
2023/12/10 08:35:41;;;;;;;18.70;9.90;;;;;;;11.81;33.72;100877.13;105556;1257;60554;-59
2023/12/10 08:38:09;;;;;;;26.20;10.50;;;;;;;11.79;33.58;100877.25;105587;1256;60440;-59
2023/12/10 08:40:36;;;;;;;17.40;8.00;;;;;;;11.79;33.59;100875.50;105948;1251;63659;-58
2023/12/10 08:43:04;;;;;;;15.70;9.50;;;;;;;11.82;33.50;100869.96;105520;1251;61297;-59
2023/12/10 08:45:32;;;;;;;15.90;7.90;;;;;;;11.84;33.44;100863.84;105449;1256;62486;-59
2023/12/10 08:48:01;;;;;;;17.70;7.20;;;;;;;11.77;33.49;100862.80;105988;1256;60902;-58
2023/12/10 08:50:29;;;;;;;16.70;8.50;;;;;;;11.73;33.64;100862.81;105400;1254;60521;-58
2023/12/10 08:52:57;;;;;;;14.90;7.30;;;;;;;11.71;33.64;100860.48;105392;1255;65463;-59
2023/12/10 08:55:25;;;;;;;18.30;7.20;;;;;;;11.70;33.62;100856.88;105535;1251;61368;-59
2023/12/10 08:57:52;;;;;;;17.40;6.90;;;;;;;11.69;33.65;100855.50;105531;1253;62510;-58
2023/12/10 09:00:20;;;;;;;17.70;8.70;;;;;;;11.68;33.64;100852.41;105585;1254;60475;-58
2023/12/10 09:02:48;;;;;;;21.80;7.80;;;;;;;11.66;33.71;100852.88;105563;1254;59584;-58
2023/12/10 09:05:16;;;;;;;17.00;7.90;;;;;;;11.64;33.72;100853.74;105540;1251;65213;-58
2023/12/10 09:07:44;;;;;;;16.30;7.00;;;;;;;11.62;33.78;100848.64;105525;1253;60153;-58
2023/12/10 09:10:11;;;;;;;16.30;6.10;;;;;;;11.62;33.68;100848.47;105577;1256;62550;-57
2023/12/10 09:12:40;;;;;;;21.60;8.40;;;;;;;11.61;33.72;100850.17;105747;1256;60441;-58
2023/12/10 09:15:08;;;;;;;16.40;7.00;;;;;;;11.59;33.74;100850.16;105598;1256;60515;-57
2023/12/10 09:17:36;;;;;;;16.10;7.30;;;;;;;11.56;33.87;100849.52;105590;1253;64945;-57
2023/12/10 09:20:04;;;;;;;14.90;6.70;;;;;;;11.57;33.81;100846.30;105497;1256;60215;-57
2023/12/10 09:22:32;;;;;;;11.90;5.30;;;;;;;11.61;33.75;100844.91;106025;1251;62649;-57
2023/12/10 09:25:01;;;;;;;13.10;5.80;;;;;;;11.70;33.74;100846.63;106020;1255;60678;-57
2023/12/10 09:27:28;;;;;;;19.30;6.80;;;;;;;11.81;33.71;100845.64;105581;1256;60454;-57
2023/12/10 09:29:56;;;;;;;11.90;5.50;;;;;;;11.92;33.62;100837.19;105480;1251;63598;-57
2023/12/10 09:32:26;;;;;;;14.50;6.50;;;;;;;12.05;33.58;100827.30;105365;1254;61558;-58
2023/12/10 09:34:55;;;;;;;15.70;7.40;;;;;;;12.21;33.53;100821.25;106104;1256;62441;-57
2023/12/10 09:37:23;;;;;;;17.50;9.30;;;;;;;12.32;33.23;100813.87;105360;1257;61212;-57
2023/12/10 09:39:51;;;;;;;22.10;9.30;;;;;;;12.40;33.16;100814.81;105548;1256;59758;-57
2023/12/10 09:42:18;;;;;;;14.90;7.50;;;;;;;12.45;33.02;100815.43;105559;1252;63702;-58
2023/12/10 09:44:46;;;;;;;18.20;8.60;;;;;;;12.48;32.96;100815.44;105609;1256;61054;-57
2023/12/10 09:47:14;;;;;;;15.60;8.00;;;;;;;12.49;32.94;100814.84;105597;1253;62584;-57
2023/12/10 09:49:41;;;;;;;20.30;8.30;;;;;;;12.49;32.83;100811.84;105313;1251;60460;-58
2023/12/10 09:52:10;;;;;;;19.40;9.00;;;;;;;12.45;32.77;100804.39;105642;1251;60518;-57
2023/12/10 09:54:40;;;;;;;14.50;7.50;;;;;;;12.41;32.81;100801.31;105804;1251;63627;-58
2023/12/10 09:57:11;;;;;;;17.90;8.40;;;;;;;12.38;32.89;100796.98;105859;1256;61374;-58
2023/12/10 09:59:39;;;;;;;24.50;10.10;;;;;;;12.36;32.87;100791.19;105835;1256;62524;-57
2023/12/10 10:02:10;;;;;;;18.50;8.50;;;;;;;12.35;33.00;100788.30;105445;1256;60533;-58
2023/12/10 10:04:41;;;;;;;17.60;7.50;;;;;;;12.33;32.93;100786.34;105825;1256;60437;-58
2023/12/10 10:07:09;;;;;;;16.90;7.10;;;;;;;12.30;32.84;100786.23;105611;1254;64937;-58
2023/12/10 10:09:37;;;;;;;18.30;9.50;;;;;;;12.27;32.99;100786.96;105548;1253;61300;-57
2023/12/10 10:12:06;;;;;;;20.90;9.50;;;;;;;12.26;32.97;100790.92;105543;1251;64152;-58
2023/12/10 10:14:34;;;;;;;20.10;8.20;;;;;;;12.24;33.06;100792.20;105985;1254;60554;-57
2023/12/10 10:17:03;;;;;;;17.00;7.70;;;;;;;12.21;33.03;100790.27;106012;1253;60430;-58
2023/12/10 10:19:30;;;;;;;21.60;8.90;;;;;;;12.19;33.20;100787.24;106105;1255;65311;-59
2023/12/10 10:21:58;;;;;;;17.30;8.00;;;;;;;12.22;33.13;100788.13;106132;1251;61905;-57
2023/12/10 10:24:26;;;;;;;18.50;8.40;;;;;;;12.22;33.11;100796.54;105538;1254;62749;-58
2023/12/10 10:26:54;;;;;;;19.00;9.80;;;;;;;12.22;33.18;100795.46;106306;1254;60550;-57
2023/12/10 10:29:25;;;;;;;20.60;11.60;;;;;;;12.24;33.08;100789.88;105534;1251;60489;-57
2023/12/10 10:31:54;;;;;;;18.80;10.80;;;;;;;12.30;33.10;100789.23;106064;1251;63654;-56
2023/12/10 10:34:22;;;;;;;19.90;9.30;;;;;;;12.31;33.05;100786.84;105631;1251;61359;-56
2023/12/10 10:36:51;;;;;;;15.90;7.70;;;;;;;12.28;32.97;100786.02;105593;1256;62502;-57
2023/12/10 10:39:19;;;;;;;11.70;5.70;;;;;;;12.30;32.94;100791.14;105608;1250;60783;-57
2023/12/10 10:41:49;;;;;;;14.60;5.90;;;;;;;12.37;32.88;100791.97;105618;1251;60556;-56
2023/12/10 10:44:16;;;;;;;16.40;7.50;;;;;;;12.45;32.81;100788.35;105653;1251;63607;-56
2023/12/10 10:46:44;;;;;;;20.50;9.50;;;;;;;12.55;32.70;100789.86;105563;1256;61536;-57
2023/12/10 10:49:12;;;;;;;11.20;5.20;;;;;;;12.64;32.63;100787.16;105709;1256;62465;-56
2023/12/10 10:51:40;;;;;;;18.40;10.00;;;;;;;12.71;32.66;100778.11;105361;1251;60509;-57
2023/12/10 10:54:07;;;;;;;16.70;7.80;;;;;;;12.75;32.59;100775.70;105350;1251;60333;-57
2023/12/10 10:56:35;;;;;;;18.70;8.70;;;;;;;12.77;32.68;100774.13;105571;1256;63621;-57
2023/12/10 10:59:03;;;;;;;14.80;7.50;;;;;;;12.81;32.84;100774.16;105379;1255;61316;-56
2023/12/10 11:01:39;;;;;;;17.30;10.30;;;;;;;12.83;32.83;100771.65;105944;1251;62567;-60
2023/12/10 11:04:12;;;;;;;14.30;6.40;;;;;;;12.82;32.67;100768.20;105899;1251;60377;-61
2023/12/10 11:06:40;;;;;;;16.50;8.50;;;;;;;12.81;32.77;100769.95;105648;1251;60499;-61
2023/12/10 11:09:08;;;;;;;20.10;9.60;;;;;;;12.79;32.76;100769.58;105848;1252;64965;-61
2023/12/10 11:11:40;;;;;;;18.70;8.10;;;;;;;12.78;32.84;100769.98;105516;1254;61327;-61
2023/12/10 11:14:19;;;;;;;19.00;7.60;;;;;;;12.78;32.92;100770.15;105703;1254;62475;-60